X  Fermer Données météorologiques d'aviation de Metar     EDDS Stuttgart Airport
Température
13°C Température
12°C Point de rosée
94% Humidité



Vitesse
2 KM/H
1 MPH
0 M/S
1 KTS



Calme
Nord
Conditions actuelles

Légère  Pluie Légère Pluie
Pression 1016.92 (hPa) - 30.03 (inHg)
Visibilité 6.2 (mile) - 10 (km)
Aéroport
Code de l'aéroport EDDS

Emplacement: Stuttgart Airport
Distance: 10 (km)

Metar:
EDDS 222250Z VRB01KT 9999 -RA FEW043 13/12 Q1017

Temps: 23-10-2020 00:50 CEST